Paragonah, Utah
Current Conditions -  °F | °C
As of 3:53 PM on Friday 31 Oct 2014 (Local Time) from KCDC Reporting Station
Clear Clear  
Wind Chill: 71°   Ceiling: Unl
Heat Index: 71°   Visibility: 10mi
Dew Point: 25°   Wind: 15mph
Humidity: 18%   Direction: 190°S
Pressure: 29.95"   Gusts: 31mph
Location:  37.89°N, 112.78°W
Report Text: KCDC 312153Z AUTO 19013G27KT 10SM CLR 22/M04 A2995 RMK AO2 PK WND 20031/2126 RAE2054 SLP093 P0000 T02171039 TSNO $
Loading
Personal Weather Stations






























Interactive Weather Map
Tropical Storm Tracking
New forecast layout! Learn more

10-Day Weather Forecast

Advertisements
Track Severe Weather on mobile